Sweet Valley, Pennsylvania
Current Conditions -  °F | °C
As of 1:54 PM on Saturday 20 Dec 2014 (Local Time) from KAVP Reporting Station
Overcast Overcast  
Wind Chill: 26°   Ceiling: 2400
Heat Index: 31°   Visibility: 10mi
Dew Point: 20°   Wind: 5mph
Humidity: 64%   Direction: 10°N
Pressure: 30.2"   Gusts: NA
Location:  41.28°N, 76.14°W
Report Text: KAVP 201854Z AUTO 01004KT 10SM OVC024 M01/M07 A3020 RMK AO2 SLP235 T10061067
Loading
Personal Weather Stations






























Interactive Weather Map New forecast layout! Learn more

10-Day Weather Forecast

Advertisements
Track Severe Weather on mobile